sensor_id;sensor_type;location;lat;lon;timestamp;pressure;altitude;pressure_sealevel;temperature;humidity
73024;BME280;61199;47.526;8.538;2023-06-22T00:01:18;96362.72;;;24.00;65.45
73024;BME280;61199;47.526;8.538;2023-06-22T00:03:45;96363.72;;;24.06;64.88
73024;BME280;61199;47.526;8.538;2023-06-22T00:06:11;96364.75;;;24.05;65.09
73024;BME280;61199;47.526;8.538;2023-06-22T00:08:38;96369.16;;;24.17;65.15
73024;BME280;61199;47.526;8.538;2023-06-22T00:11:04;96367.22;;;24.06;65.38
73024;BME280;61199;47.526;8.538;2023-06-22T00:13:31;96358.63;;;24.22;64.99
73024;BME280;61199;47.526;8.538;2023-06-22T00:15:57;96367.25;;;24.24;64.74
73024;BME280;61199;47.526;8.538;2023-06-22T00:18:23;96363.69;;;24.30;64.48
73024;BME280;61199;47.526;8.538;2023-06-22T00:20:55;96358.50;;;24.35;64.51
73024;BME280;61199;47.526;8.538;2023-06-22T00:23:25;96364.44;;;24.37;63.82
73024;BME280;61199;47.526;8.538;2023-06-22T00:25:52;96356.72;;;24.29;64.69
73024;BME280;61199;47.526;8.538;2023-06-22T00:28:19;96370.09;;;24.29;64.69
73024;BME280;61199;47.526;8.538;2023-06-22T00:30:45;96365.47;;;24.36;63.94
73024;BME280;61199;47.526;8.538;2023-06-22T00:33:12;96365.78;;;24.28;64.78
73024;BME280;61199;47.526;8.538;2023-06-22T00:35:38;96357.59;;;24.23;64.95
73024;BME280;61199;47.526;8.538;2023-06-22T00:38:07;96361.44;;;24.27;65.24
73024;BME280;61199;47.526;8.538;2023-06-22T00:40:34;96355.66;;;24.30;64.37
73024;BME280;61199;47.526;8.538;2023-06-22T00:43:01;96365.16;;;24.26;64.93
73024;BME280;61199;47.526;8.538;2023-06-22T00:45:28;96356.72;;;24.29;65.23
73024;BME280;61199;47.526;8.538;2023-06-22T00:47:56;96353.66;;;24.26;64.76
73024;BME280;61199;47.526;8.538;2023-06-22T00:50:26;96347.72;;;24.24;64.97
73024;BME280;61199;47.526;8.538;2023-06-22T00:52:55;96339.22;;;24.27;64.39
73024;BME280;61199;47.526;8.538;2023-06-22T00:55:23;96354.81;;;24.12;65.34
73024;BME280;61199;47.526;8.538;2023-06-22T00:57:50;96354.00;;;24.11;65.49
73024;BME280;61199;47.526;8.538;2023-06-22T01:00:17;96369.63;;;24.14;65.20
73024;BME280;61199;47.526;8.538;2023-06-22T01:02:46;96365.75;;;24.10;65.28
73024;BME280;61199;47.526;8.538;2023-06-22T01:05:14;96377.13;;;24.06;65.28
73024;BME280;61199;47.526;8.538;2023-06-22T01:10:41;96371.38;;;24.02;65.23
73024;BME280;61199;47.526;8.538;2023-06-22T01:13:29;96377.38;;;23.98;65.64
73024;BME280;61199;47.526;8.538;2023-06-22T01:16:01;96376.00;;;23.89;65.88
73024;BME280;61199;47.526;8.538;2023-06-22T01:18:30;96385.44;;;23.91;66.29
73024;BME280;61199;47.526;8.538;2023-06-22T01:20:57;96386.66;;;23.95;65.99
73024;BME280;61199;47.526;8.538;2023-06-22T01:23:49;96401.09;;;23.94;65.86
73024;BME280;61199;47.526;8.538;2023-06-22T01:26:39;96395.69;;;23.70;66.13
73024;BME280;61199;47.526;8.538;2023-06-22T01:29:11;96405.00;;;23.54;66.94
73024;BME280;61199;47.526;8.538;2023-06-22T01:31:42;96407.28;;;23.57;66.72
73024;BME280;61199;47.526;8.538;2023-06-22T01:34:11;96414.41;;;23.32;67.53
73024;BME280;61199;47.526;8.538;2023-06-22T01:36:39;96410.66;;;23.40;67.57
73024;BME280;61199;47.526;8.538;2023-06-22T01:39:07;96403.03;;;23.43;67.32
73024;BME280;61199;47.526;8.538;2023-06-22T01:41:37;96400.94;;;23.45;67.72
73024;BME280;61199;47.526;8.538;2023-06-22T01:44:08;96395.66;;;23.39;67.85
73024;BME280;61199;47.526;8.538;2023-06-22T01:46:36;96397.91;;;23.42;67.36
73024;BME280;61199;47.526;8.538;2023-06-22T01:49:04;96395.59;;;23.45;67.56
73024;BME280;61199;47.526;8.538;2023-06-22T01:51:31;96393.56;;;23.47;67.16
73024;BME280;61199;47.526;8.538;2023-06-22T01:53:57;96398.06;;;23.47;66.97
73024;BME280;61199;47.526;8.538;2023-06-22T01:56:25;96390.25;;;23.45;67.62
73024;BME280;61199;47.526;8.538;2023-06-22T01:59:11;96393.00;;;23.32;67.39
73024;BME280;61199;47.526;8.538;2023-06-22T02:02:01;96398.13;;;23.40;67.12
73024;BME280;61199;47.526;8.538;2023-06-22T02:04:34;96402.22;;;23.36;67.71
73024;BME280;61199;47.526;8.538;2023-06-22T02:07:05;96409.66;;;23.34;67.23
73024;BME280;61199;47.526;8.538;2023-06-22T02:09:37;96410.69;;;23.33;67.13
73024;BME280;61199;47.526;8.538;2023-06-22T02:12:06;96403.91;;;23.37;67.34
73024;BME280;61199;47.526;8.538;2023-06-22T02:14:34;96404.16;;;23.29;67.85
73024;BME280;61199;47.526;8.538;2023-06-22T02:17:01;96404.56;;;23.26;67.77
73024;BME280;61199;47.526;8.538;2023-06-22T02:19:27;96393.84;;;23.26;67.71
73024;BME280;61199;47.526;8.538;2023-06-22T02:21:53;96398.03;;;23.16;67.79
73024;BME280;61199;47.526;8.538;2023-06-22T02:24:20;96402.13;;;23.18;68.16
73024;BME280;61199;47.526;8.538;2023-06-22T02:26:49;96397.41;;;23.20;68.03
73024;BME280;61199;47.526;8.538;2023-06-22T02:29:15;96394.09;;;23.18;67.65
73024;BME280;61199;47.526;8.538;2023-06-22T02:31:42;96397.22;;;23.15;67.90
73024;BME280;61199;47.526;8.538;2023-06-22T02:34:08;96398.25;;;23.14;68.01
73024;BME280;61199;47.526;8.538;2023-06-22T02:36:35;96396.19;;;23.10;68.27
73024;BME280;61199;47.526;8.538;2023-06-22T02:39:01;96385.09;;;23.06;67.90
73024;BME280;61199;47.526;8.538;2023-06-22T02:41:29;96387.31;;;23.09;68.03
73024;BME280;61199;47.526;8.538;2023-06-22T02:43:56;96384.47;;;23.04;68.64
73024;BME280;61199;47.526;8.538;2023-06-22T02:46:22;96382.25;;;23.01;68.73
73024;BME280;61199;47.526;8.538;2023-06-22T02:48:48;96377.69;;;23.02;68.31
73024;BME280;61199;47.526;8.538;2023-06-22T02:51:15;96380.38;;;23.02;68.87
73024;BME280;61199;47.526;8.538;2023-06-22T02:53:41;96398.91;;;22.90;68.56
73024;BME280;61199;47.526;8.538;2023-06-22T02:56:10;96401.59;;;22.90;68.75
73024;BME280;61199;47.526;8.538;2023-06-22T02:58:37;96398.09;;;22.96;69.11
73024;BME280;61199;47.526;8.538;2023-06-22T03:01:05;96388.00;;;22.98;68.57
73024;BME280;61199;47.526;8.538;2023-06-22T03:03:32;96388.22;;;22.97;68.52
73024;BME280;61199;47.526;8.538;2023-06-22T03:05:58;96387.00;;;22.93;68.80
73024;BME280;61199;47.526;8.538;2023-06-22T03:08:27;96399.72;;;22.97;68.79
73024;BME280;61199;47.526;8.538;2023-06-22T03:10:54;96395.41;;;22.96;68.63
73024;BME280;61199;47.526;8.538;2023-06-22T03:13:20;96402.00;;;23.00;68.58
73024;BME280;61199;47.526;8.538;2023-06-22T03:15:47;96392.56;;;22.91;68.77
73024;BME280;61199;47.526;8.538;2023-06-22T03:18:13;96401.41;;;22.85;69.33
73024;BME280;61199;47.526;8.538;2023-06-22T03:20:40;96387.66;;;22.82;69.64
73024;BME280;61199;47.526;8.538;2023-06-22T03:23:06;96378.81;;;22.81;69.59
73024;BME280;61199;47.526;8.538;2023-06-22T03:25:33;96379.84;;;22.80;69.00
73024;BME280;61199;47.526;8.538;2023-06-22T03:28:00;96377.78;;;22.76;69.78
73024;BME280;61199;47.526;8.538;2023-06-22T03:30:26;96375.16;;;22.69;69.71
73024;BME280;61199;47.526;8.538;2023-06-22T03:32:53;96372.84;;;22.79;69.31
73024;BME280;61199;47.526;8.538;2023-06-22T03:35:20;96362.16;;;22.79;69.64
73024;BME280;61199;47.526;8.538;2023-06-22T03:37:47;96368.75;;;22.83;69.13
73024;BME280;61199;47.526;8.538;2023-06-22T03:40:13;96375.34;;;22.81;69.34
73024;BME280;61199;47.526;8.538;2023-06-22T03:42:39;96373.09;;;22.71;69.21
73024;BME280;61199;47.526;8.538;2023-06-22T03:45:06;96371.66;;;22.75;69.52
73024;BME280;61199;47.526;8.538;2023-06-22T03:47:33;96370.41;;;22.71;69.02
73024;BME280;61199;47.526;8.538;2023-06-22T03:50:00;96363.44;;;22.70;69.09
73024;BME280;61199;47.526;8.538;2023-06-22T03:52:26;96375.81;;;22.58;69.78
73024;BME280;61199;47.526;8.538;2023-06-22T03:54:52;96373.94;;;22.65;69.65
73024;BME280;61199;47.526;8.538;2023-06-22T03:57:19;96365.31;;;22.63;70.17
73024;BME280;61199;47.526;8.538;2023-06-22T03:59:45;96362.44;;;22.65;69.85
73024;BME280;61199;47.526;8.538;2023-06-22T04:02:12;96356.88;;;22.66;69.83
73024;BME280;61199;47.526;8.538;2023-06-22T04:04:38;96355.66;;;22.62;69.81
73024;BME280;61199;47.526;8.538;2023-06-22T04:07:06;96350.31;;;22.62;69.81
73024;BME280;61199;47.526;8.538;2023-06-22T04:09:32;96352.81;;;22.57;70.02
73024;BME280;61199;47.526;8.538;2023-06-22T04:11:59;96348.28;;;22.64;69.84
73024;BME280;61199;47.526;8.538;2023-06-22T04:14:25;96357.53;;;22.62;69.51
73024;BME280;61199;47.526;8.538;2023-06-22T04:16:51;96354.88;;;22.49;70.47
73024;BME280;61199;47.526;8.538;2023-06-22T04:19:18;96351.59;;;22.47;70.44
73024;BME280;61199;47.526;8.538;2023-06-22T04:21:44;96353.84;;;22.50;70.51
73024;BME280;61199;47.526;8.538;2023-06-22T04:24:11;96351.16;;;22.56;69.74
73024;BME280;61199;47.526;8.538;2023-06-22T04:26:38;96349.09;;;22.58;69.62
73024;BME280;61199;47.526;8.538;2023-06-22T04:29:08;96361.81;;;22.63;69.16
73024;BME280;61199;47.526;8.538;2023-06-22T04:31:35;96364.88;;;22.73;69.25
73024;BME280;61199;47.526;8.538;2023-06-22T04:34:05;96361.81;;;22.69;69.61
73024;BME280;61199;47.526;8.538;2023-06-22T04:36:37;96352.75;;;22.70;69.37
73024;BME280;61199;47.526;8.538;2023-06-22T04:39:09;96360.16;;;22.68;69.22
73024;BME280;61199;47.526;8.538;2023-06-22T04:41:40;96369.00;;;22.62;70.01
73024;BME280;61199;47.526;8.538;2023-06-22T04:44:16;96371.28;;;22.65;69.33
73024;BME280;61199;47.526;8.538;2023-06-22T04:46:54;96361.44;;;22.59;70.28
73024;BME280;61199;47.526;8.538;2023-06-22T04:49:26;96355.91;;;22.48;70.50
73024;BME280;61199;47.526;8.538;2023-06-22T04:52:02;96359.78;;;22.58;70.13
73024;BME280;61199;47.526;8.538;2023-06-22T04:54:29;96353.22;;;22.54;70.60
73024;BME280;61199;47.526;8.538;2023-06-22T04:56:55;96359.78;;;22.58;70.67
73024;BME280;61199;47.526;8.538;2023-06-22T04:59:27;96358.97;;;22.64;70.22
73024;BME280;61199;47.526;8.538;2023-06-22T05:01:58;96354.00;;;22.61;70.80
73024;BME280;61199;47.526;8.538;2023-06-22T05:04:25;96361.41;;;22.66;70.28
73024;BME280;61199;47.526;8.538;2023-06-22T05:06:53;96360.34;;;22.80;69.97
73024;BME280;61199;47.526;8.538;2023-06-22T05:09:21;96360.31;;;22.86;69.12
73024;BME280;61199;47.526;8.538;2023-06-22T05:11:47;96343.84;;;22.89;69.29
73024;BME280;61199;47.526;8.538;2023-06-22T05:14:14;96342.41;;;22.93;69.63
73024;BME280;61199;47.526;8.538;2023-06-22T05:16:41;96336.44;;;22.91;69.31
73024;BME280;61199;47.526;8.538;2023-06-22T05:19:08;96341.28;;;23.07;69.21
73024;BME280;61199;47.526;8.538;2023-06-22T05:21:35;96329.94;;;23.12;68.91
73024;BME280;61199;47.526;8.538;2023-06-22T05:24:01;96346.41;;;23.15;68.88
73024;BME280;61199;47.526;8.538;2023-06-22T05:26:32;96350.97;;;23.15;69.26
73024;BME280;61199;47.526;8.538;2023-06-22T05:29:01;96337.72;;;23.26;68.55
73024;BME280;61199;47.526;8.538;2023-06-22T05:31:29;96340.22;;;23.21;68.58
73024;BME280;61199;47.526;8.538;2023-06-22T05:33:56;96329.09;;;23.24;68.56
73024;BME280;61199;47.526;8.538;2023-06-22T05:36:22;96334.84;;;23.28;68.50
73024;BME280;61199;47.526;8.538;2023-06-22T05:38:52;96339.50;;;23.39;68.27
73024;BME280;61199;47.526;8.538;2023-06-22T05:41:19;96328.59;;;23.40;68.32
73024;BME280;61199;47.526;8.538;2023-06-22T05:43:45;96334.47;;;23.55;66.95
73024;BME280;61199;47.526;8.538;2023-06-22T05:46:12;96339.69;;;23.68;66.77
73024;BME280;61199;47.526;8.538;2023-06-22T05:48:38;96336.31;;;23.79;66.41
73024;BME280;61199;47.526;8.538;2023-06-22T05:51:05;96351.53;;;23.85;65.83
73024;BME280;61199;47.526;8.538;2023-06-22T05:53:31;96350.88;;;23.90;65.91
73024;BME280;61199;47.526;8.538;2023-06-22T05:55:58;96352.31;;;23.92;66.11
73024;BME280;61199;47.526;8.538;2023-06-22T05:58:24;96354.16;;;23.92;65.73
73024;BME280;61199;47.526;8.538;2023-06-22T06:00:50;96346.34;;;23.90;65.61
73024;BME280;61199;47.526;8.538;2023-06-22T06:03:17;96343.00;;;23.95;65.77
73024;BME280;61199;47.526;8.538;2023-06-22T06:05:43;96338.88;;;23.99;66.45
73024;BME280;61199;47.526;8.538;2023-06-22T06:08:11;96335.25;;;23.87;65.90
73024;BME280;61199;47.526;8.538;2023-06-22T06:10:38;96334.00;;;23.89;66.23
73024;BME280;61199;47.526;8.538;2023-06-22T06:13:05;96348.25;;;23.83;66.59
73024;BME280;61199;47.526;8.538;2023-06-22T06:15:32;96351.03;;;23.95;65.75
73024;BME280;61199;47.526;8.538;2023-06-22T06:17:58;96345.03;;;23.99;65.92
73024;BME280;61199;47.526;8.538;2023-06-22T06:20:26;96356.50;;;24.06;65.49
73024;BME280;61199;47.526;8.538;2023-06-22T06:22:56;96356.06;;;24.09;65.57
73024;BME280;61199;47.526;8.538;2023-06-22T06:25:23;96364.31;;;24.08;65.88
73024;BME280;61199;47.526;8.538;2023-06-22T06:27:51;96359.78;;;24.08;65.75
73024;BME280;61199;47.526;8.538;2023-06-22T06:30:18;96359.19;;;24.06;66.00
73024;BME280;61199;47.526;8.538;2023-06-22T06:32:45;96360.16;;;24.12;65.37
73024;BME280;61199;47.526;8.538;2023-06-22T06:35:13;96353.09;;;24.17;65.29
73024;BME280;61199;47.526;8.538;2023-06-22T06:37:43;96363.38;;;24.20;65.79
73024;BME280;61199;47.526;8.538;2023-06-22T06:40:11;96361.69;;;24.26;65.66
73024;BME280;61199;47.526;8.538;2023-06-22T06:42:39;96358.34;;;24.30;64.92
73024;BME280;61199;47.526;8.538;2023-06-22T06:45:08;96364.88;;;24.34;64.79
73024;BME280;61199;47.526;8.538;2023-06-22T06:47:35;96370.78;;;24.42;64.83
73024;BME280;61199;47.526;8.538;2023-06-22T06:50:03;96374.19;;;24.49;64.61
73024;BME280;61199;47.526;8.538;2023-06-22T06:52:30;96370.28;;;24.52;64.84
73024;BME280;61199;47.526;8.538;2023-06-22T06:54:56;96361.19;;;24.53;65.10
73024;BME280;61199;47.526;8.538;2023-06-22T06:57:23;96367.16;;;24.55;65.27
73024;BME280;61199;47.526;8.538;2023-06-22T06:59:49;96356.78;;;24.65;64.81
73024;BME280;61199;47.526;8.538;2023-06-22T07:02:15;96341.72;;;24.64;64.45
73024;BME280;61199;47.526;8.538;2023-06-22T07:04:42;96343.69;;;24.75;64.06
73024;BME280;61199;47.526;8.538;2023-06-22T07:07:08;96347.25;;;24.69;64.53
73024;BME280;61199;47.526;8.538;2023-06-22T07:09:35;96351.09;;;24.73;64.24
73024;BME280;61199;47.526;8.538;2023-06-22T07:12:01;96351.16;;;24.84;64.33
73024;BME280;61199;47.526;8.538;2023-06-22T07:14:28;96351.09;;;24.91;64.33
73024;BME280;61199;47.526;8.538;2023-06-22T07:16:54;96358.41;;;24.66;64.90
73024;BME280;61199;47.526;8.538;2023-06-22T07:19:25;96387.75;;;24.79;64.25
73024;BME280;61199;47.526;8.538;2023-06-22T07:21:55;96407.44;;;24.66;64.91
73024;BME280;61199;47.526;8.538;2023-06-22T07:24:22;96422.19;;;24.33;65.92
73024;BME280;61199;47.526;8.538;2023-06-22T07:26:49;96480.25;;;24.08;66.55
73024;BME280;61199;47.526;8.538;2023-06-22T07:29:17;96539.53;;;23.74;68.46
73024;BME280;61199;47.526;8.538;2023-06-22T07:31:44;96553.66;;;23.24;69.91
73024;BME280;61199;47.526;8.538;2023-06-22T07:34:11;96536.22;;;23.15;70.55
73024;BME280;61199;47.526;8.538;2023-06-22T07:36:37;96490.75;;;23.09;71.24
73024;BME280;61199;47.526;8.538;2023-06-22T07:39:04;96505.66;;;23.49;69.81
73024;BME280;61199;47.526;8.538;2023-06-22T07:41:32;96533.84;;;23.51;68.51
73024;BME280;61199;47.526;8.538;2023-06-22T07:43:58;96534.22;;;23.61;68.77
73024;BME280;61199;47.526;8.538;2023-06-22T07:46:25;96535.03;;;23.62;68.37
73024;BME280;61199;47.526;8.538;2023-06-22T07:48:51;96531.66;;;23.79;68.25
73024;BME280;61199;47.526;8.538;2023-06-22T07:51:21;96515.69;;;23.66;69.14
73024;BME280;61199;47.526;8.538;2023-06-22T07:53:48;96526.53;;;23.71;69.07
73024;BME280;61199;47.526;8.538;2023-06-22T07:56:14;96524.56;;;23.54;69.26
73024;BME280;61199;47.526;8.538;2023-06-22T07:58:46;96499.53;;;23.79;68.42
73024;BME280;61199;47.526;8.538;2023-06-22T08:01:16;96476.94;;;23.75;68.62
73024;BME280;61199;47.526;8.538;2023-06-22T08:03:43;96481.78;;;23.91;67.61
73024;BME280;61199;47.526;8.538;2023-06-22T08:06:09;96472.88;;;24.04;67.73
73024;BME280;61199;47.526;8.538;2023-06-22T08:08:36;96476.72;;;24.14;66.89
73024;BME280;61199;47.526;8.538;2023-06-22T08:11:03;96462.66;;;23.94;67.79
73024;BME280;61199;47.526;8.538;2023-06-22T08:13:29;96455.63;;;24.24;67.01
73024;BME280;61199;47.526;8.538;2023-06-22T08:15:56;96448.22;;;24.44;66.60
73024;BME280;61199;47.526;8.538;2023-06-22T08:18:22;96423.31;;;24.68;65.67
73024;BME280;61199;47.526;8.538;2023-06-22T08:20:48;96427.13;;;24.96;65.16
73024;BME280;61199;47.526;8.538;2023-06-22T08:23:16;96441.66;;;25.07;64.58
73024;BME280;61199;47.526;8.538;2023-06-22T08:25:42;96443.78;;;25.23;63.52
73024;BME280;61199;47.526;8.538;2023-06-22T08:28:09;96434.47;;;25.25;63.35
73024;BME280;61199;47.526;8.538;2023-06-22T08:30:35;96439.75;;;25.32;62.55
73024;BME280;61199;47.526;8.538;2023-06-22T08:33:02;96449.41;;;25.15;63.58
73024;BME280;61199;47.526;8.538;2023-06-22T08:35:29;96460.22;;;25.08;63.40
73024;BME280;61199;47.526;8.538;2023-06-22T08:37:56;96458.09;;;24.92;64.17
73024;BME280;61199;47.526;8.538;2023-06-22T08:40:23;96457.91;;;24.94;64.07
73024;BME280;61199;47.526;8.538;2023-06-22T08:42:50;96449.59;;;24.95;64.47
73024;BME280;61199;47.526;8.538;2023-06-22T08:45:16;96453.09;;;24.78;64.79
73024;BME280;61199;47.526;8.538;2023-06-22T08:47:43;96443.56;;;24.82;64.97
73024;BME280;61199;47.526;8.538;2023-06-22T08:50:11;96445.75;;;25.09;64.77
73024;BME280;61199;47.526;8.538;2023-06-22T08:52:39;96445.38;;;25.06;63.65
73024;BME280;61199;47.526;8.538;2023-06-22T08:55:08;96437.78;;;25.03;64.10
73024;BME280;61199;47.526;8.538;2023-06-22T08:57:35;96433.75;;;25.12;64.25
73024;BME280;61199;47.526;8.538;2023-06-22T09:00:06;96437.63;;;25.34;64.13
73024;BME280;61199;47.526;8.538;2023-06-22T09:02:37;96440.00;;;25.60;62.91
73024;BME280;61199;47.526;8.538;2023-06-22T09:05:06;96435.09;;;25.68;62.55
73024;BME280;61199;47.526;8.538;2023-06-22T09:07:33;96427.53;;;25.95;61.71
73024;BME280;61199;47.526;8.538;2023-06-22T09:10:01;96422.53;;;26.10;61.03
73024;BME280;61199;47.526;8.538;2023-06-22T09:12:29;96421.41;;;26.17;60.54
73024;BME280;61199;47.526;8.538;2023-06-22T09:14:57;96407.84;;;26.24;60.18
73024;BME280;61199;47.526;8.538;2023-06-22T09:17:23;96410.66;;;26.29;60.31
73024;BME280;61199;47.526;8.538;2023-06-22T09:19:49;96413.22;;;26.47;59.72
73024;BME280;61199;47.526;8.538;2023-06-22T09:22:16;96411.78;;;26.10;59.49
73024;BME280;61199;47.526;8.538;2023-06-22T09:24:42;96407.84;;;26.24;59.55
73024;BME280;61199;47.526;8.538;2023-06-22T09:27:09;96402.00;;;26.27;58.94
73024;BME280;61199;47.526;8.538;2023-06-22T09:29:35;96390.31;;;26.10;59.33
73024;BME280;61199;47.526;8.538;2023-06-22T09:32:02;96383.19;;;26.04;59.52
73024;BME280;61199;47.526;8.538;2023-06-22T09:34:28;96387.25;;;25.95;59.81
73024;BME280;61199;47.526;8.538;2023-06-22T09:36:57;96393.44;;;25.95;59.73
73024;BME280;61199;47.526;8.538;2023-06-22T09:39:26;96386.59;;;26.11;59.97
73024;BME280;61199;47.526;8.538;2023-06-22T09:41:53;96391.03;;;26.17;59.86
73024;BME280;61199;47.526;8.538;2023-06-22T09:44:19;96390.81;;;26.30;58.74
73024;BME280;61199;47.526;8.538;2023-06-22T09:46:46;96387.06;;;26.31;59.27
73024;BME280;61199;47.526;8.538;2023-06-22T09:49:12;96390.09;;;26.46;58.85
73024;BME280;61199;47.526;8.538;2023-06-22T09:51:38;96379.84;;;26.43;59.25
73024;BME280;61199;47.526;8.538;2023-06-22T09:54:05;96370.53;;;26.57;57.72
73024;BME280;61199;47.526;8.538;2023-06-22T09:56:31;96359.94;;;26.78;57.56
73024;BME280;61199;47.526;8.538;2023-06-22T09:58:58;96352.00;;;26.95;57.50
73024;BME280;61199;47.526;8.538;2023-06-22T10:01:42;96328.28;;;27.20;56.80
73024;BME280;61199;47.526;8.538;2023-06-22T10:04:09;96316.38;;;27.44;56.39
73024;BME280;61199;47.526;8.538;2023-06-22T10:06:35;96318.97;;;27.67;55.91
73024;BME280;61199;47.526;8.538;2023-06-22T10:09:02;96331.63;;;27.83;55.26
73024;BME280;61199;47.526;8.538;2023-06-22T10:11:28;96346.84;;;27.88;54.66
73024;BME280;61199;47.526;8.538;2023-06-22T10:13:57;96337.41;;;27.75;53.83
73024;BME280;61199;47.526;8.538;2023-06-22T10:16:29;96331.06;;;27.81;53.55
73024;BME280;61199;47.526;8.538;2023-06-22T10:18:56;96330.09;;;27.87;53.25
73024;BME280;61199;47.526;8.538;2023-06-22T10:21:22;96323.81;;;27.97;52.82
73024;BME280;61199;47.526;8.538;2023-06-22T10:23:49;96330.50;;;27.95;52.33
73024;BME280;61199;47.526;8.538;2023-06-22T10:26:15;96329.31;;;28.02;52.96
73024;BME280;61199;47.526;8.538;2023-06-22T10:28:42;96313.94;;;28.03;53.77
73024;BME280;61199;47.526;8.538;2023-06-22T10:31:08;96317.69;;;28.18;53.66
73024;BME280;61199;47.526;8.538;2023-06-22T10:33:35;96314.38;;;28.33;52.36
73024;BME280;61199;47.526;8.538;2023-06-22T10:36:01;96311.72;;;28.49;52.20
73024;BME280;61199;47.526;8.538;2023-06-22T10:38:28;96309.34;;;28.53;51.91
73024;BME280;61199;47.526;8.538;2023-06-22T10:40:54;96309.78;;;28.66;51.61
73024;BME280;61199;47.526;8.538;2023-06-22T10:43:23;96315.88;;;28.78;51.32
73024;BME280;61199;47.526;8.538;2023-06-22T10:45:50;96314.06;;;28.84;51.04
73024;BME280;61199;47.526;8.538;2023-06-22T10:48:16;96309.66;;;28.94;51.10
73024;BME280;61199;47.526;8.538;2023-06-22T10:50:43;96325.56;;;28.96;50.16
73024;BME280;61199;47.526;8.538;2023-06-22T10:53:09;96318.34;;;29.01;50.15
73024;BME280;61199;47.526;8.538;2023-06-22T10:55:35;96327.81;;;29.04;49.16
73024;BME280;61199;47.526;8.538;2023-06-22T10:58:21;96337.88;;;29.08;49.27
73024;BME280;61199;47.526;8.538;2023-06-22T11:00:48;96344.22;;;28.97;50.12
73024;BME280;61199;47.526;8.538;2023-06-22T11:03:14;96349.00;;;28.74;50.89
73024;BME280;61199;47.526;8.538;2023-06-22T11:05:41;96348.25;;;28.40;52.27
73024;BME280;61199;47.526;8.538;2023-06-22T11:08:08;96356.22;;;28.19;52.45
73024;BME280;61199;47.526;8.538;2023-06-22T11:10:34;96352.13;;;28.33;52.15
73024;BME280;61199;47.526;8.538;2023-06-22T11:13:00;96359.09;;;28.29;51.71
73024;BME280;61199;47.526;8.538;2023-06-22T11:15:29;96353.78;;;28.34;51.80
73024;BME280;61199;47.526;8.538;2023-06-22T11:17:55;96361.78;;;28.12;52.02
73024;BME280;61199;47.526;8.538;2023-06-22T11:20:21;96351.56;;;28.14;51.80
73024;BME280;61199;47.526;8.538;2023-06-22T11:22:48;96356.47;;;28.34;52.23
73024;BME280;61199;47.526;8.538;2023-06-22T11:25:14;96359.81;;;28.24;52.97
73024;BME280;61199;47.526;8.538;2023-06-22T11:27:40;96360.00;;;28.34;52.81
73024;BME280;61199;47.526;8.538;2023-06-22T11:30:08;96354.19;;;28.42;53.26
73024;BME280;61199;47.526;8.538;2023-06-22T11:32:34;96344.81;;;28.45;52.75
73024;BME280;61199;47.526;8.538;2023-06-22T11:35:01;96349.59;;;28.59;52.73
73024;BME280;61199;47.526;8.538;2023-06-22T11:37:27;96349.50;;;28.71;52.67
73024;BME280;61199;47.526;8.538;2023-06-22T11:39:54;96354.16;;;28.75;52.50
73024;BME280;61199;47.526;8.538;2023-06-22T11:42:32;96340.94;;;28.79;52.71
73024;BME280;61199;47.526;8.538;2023-06-22T11:44:58;96347.19;;;28.79;53.08
73024;BME280;61199;47.526;8.538;2023-06-22T11:47:25;96361.59;;;28.68;53.03
73024;BME280;61199;47.526;8.538;2023-06-22T11:49:51;96372.22;;;28.25;55.01
73024;BME280;61199;47.526;8.538;2023-06-22T11:52:18;96375.53;;;28.44;54.71
73024;BME280;61199;47.526;8.538;2023-06-22T11:54:45;96368.81;;;28.13;56.05
73024;BME280;61199;47.526;8.538;2023-06-22T11:57:12;96366.06;;;28.41;55.70
73024;BME280;61199;47.526;8.538;2023-06-22T11:59:38;96357.03;;;28.52;55.44
73024;BME280;61199;47.526;8.538;2023-06-22T12:02:05;96357.50;;;28.66;54.85
73024;BME280;61199;47.526;8.538;2023-06-22T12:04:33;96363.72;;;28.66;55.41
73024;BME280;61199;47.526;8.538;2023-06-22T12:07:00;96361.97;;;28.77;55.18
73024;BME280;61199;47.526;8.538;2023-06-22T12:09:26;96361.97;;;28.77;55.50
73024;BME280;61199;47.526;8.538;2023-06-22T12:11:52;96363.38;;;28.79;55.59
73024;BME280;61199;47.526;8.538;2023-06-22T12:14:19;96369.72;;;28.90;54.97
73024;BME280;61199;47.526;8.538;2023-06-22T12:16:45;96371.59;;;28.89;55.17
73024;BME280;61199;47.526;8.538;2023-06-22T12:19:12;96364.94;;;28.75;55.86
73024;BME280;61199;47.526;8.538;2023-06-22T12:21:38;96365.28;;;28.13;58.12
73024;BME280;61199;47.526;8.538;2023-06-22T12:24:06;96357.69;;;28.26;57.92
73024;BME280;61199;47.526;8.538;2023-06-22T12:26:33;96355.19;;;28.36;57.40
73024;BME280;61199;47.526;8.538;2023-06-22T12:28:59;96342.59;;;28.58;56.85
73024;BME280;61199;47.526;8.538;2023-06-22T12:31:25;96334.66;;;28.52;56.85
73024;BME280;61199;47.526;8.538;2023-06-22T12:33:52;96338.94;;;28.69;56.56
73024;BME280;61199;47.526;8.538;2023-06-22T12:36:18;96339.84;;;28.75;56.79
73024;BME280;61199;47.526;8.538;2023-06-22T12:38:45;96351.38;;;28.70;57.70
73024;BME280;61199;47.526;8.538;2023-06-22T12:41:11;96361.28;;;28.65;57.71
73024;BME280;61199;47.526;8.538;2023-06-22T12:43:37;96383.44;;;28.50;57.17
73024;BME280;61199;47.526;8.538;2023-06-22T12:46:04;96383.81;;;28.59;57.36
73024;BME280;61199;47.526;8.538;2023-06-22T12:48:30;96372.06;;;28.65;57.25
73024;BME280;61199;47.526;8.538;2023-06-22T12:50:57;96368.19;;;28.77;57.27
73024;BME280;61199;47.526;8.538;2023-06-22T12:53:23;96365.75;;;28.76;58.08
73024;BME280;61199;47.526;8.538;2023-06-22T12:55:50;96358.03;;;28.84;58.03
73024;BME280;61199;47.526;8.538;2023-06-22T12:58:16;96342.59;;;28.80;57.95
73024;BME280;61199;47.526;8.538;2023-06-22T13:00:43;96325.16;;;28.87;57.85
73024;BME280;61199;47.526;8.538;2023-06-22T13:03:09;96319.59;;;28.94;57.58
73024;BME280;61199;47.526;8.538;2023-06-22T13:05:36;96307.06;;;29.04;56.77